Time;durP1;ratioP1;P1;durP2;ratioP2;P2;SDS_P1;SDS_P2;PMS_P1;PMS_P2;Temp;Humidity;BMP_temperature;BMP_pressure;BME280_temperature;BME280_humidity;BME280_pressure;Samples;Min_cycle;Max_cycle;Signal;HPM_P1;HPM_P2
2022/04/25 00:00:10;;;;;;;12.80;6.90;;;8.40;99.90;;;;;;4990361;28;20272;-82
2022/04/25 00:02:37;;;;;;;14.60;7.53;;;8.50;99.90;;;;;;4989255;28;20639;-82
2022/04/25 00:05:04;;;;;;;11.30;6.27;;;8.30;99.90;;;;;;4988262;28;20297;-80
2022/04/25 00:07:31;;;;;;;16.67;7.60;;;8.40;99.90;;;;;;4987823;28;20285;-82
2022/04/25 00:09:58;;;;;;;11.33;6.63;;;8.40;99.90;;;;;;4988520;28;20218;-80
2022/04/25 00:12:25;;;;;;;13.37;6.80;;;8.30;99.90;;;;;;4989283;28;20218;-80
2022/04/25 00:14:53;;;;;;;14.00;6.90;;;8.40;99.90;;;;;;4988991;28;20252;-80
2022/04/25 00:17:20;;;;;;;14.60;7.73;;;8.20;99.90;;;;;;4989307;28;20249;-80
2022/04/25 00:19:46;;;;;;;15.17;7.50;;;8.20;99.90;;;;;;4988473;28;20225;-80
2022/04/25 00:22:13;;;;;;;13.07;6.90;;;8.20;99.90;;;;;;4988407;28;20240;-81
2022/04/25 00:24:41;;;;;;;13.03;6.60;;;8.20;99.90;;;;;;4987318;28;20268;-81
2022/04/25 00:27:08;;;;;;;17.70;7.50;;;8.20;99.90;;;;;;4990399;28;20350;-81
2022/04/25 00:29:35;;;;;;;17.87;8.07;;;8.20;99.90;;;;;;4988925;28;20202;-81
2022/04/25 00:32:04;;;;;;;16.17;7.67;;;8.20;99.90;;;;;;4987780;28;20261;-81
2022/04/25 00:34:31;;;;;;;14.53;7.23;;;8.20;99.90;;;;;;4989303;28;20668;-82
2022/04/25 00:36:58;;;;;;;13.20;6.70;;;8.20;99.90;;;;;;4986535;28;20878;-82
2022/04/25 00:39:25;;;;;;;14.60;7.50;;;8.20;99.90;;;;;;4989538;28;20237;-80
2022/04/25 00:41:52;;;;;;;16.47;7.27;;;8.20;99.90;;;;;;4986290;28;20214;-80
2022/04/25 00:44:19;;;;;;;14.50;7.23;;;8.20;99.90;;;;;;4986689;28;20288;-80
2022/04/25 00:46:48;;;;;;;14.03;7.20;;;8.10;99.90;;;;;;4988304;28;20277;-80
2022/04/25 00:49:16;;;;;;;12.10;6.90;;;8.10;99.90;;;;;;4986805;28;20212;-80
2022/04/25 00:51:43;;;;;;;11.87;6.57;;;8.10;99.90;;;;;;4988401;28;20269;-81
2022/04/25 00:54:10;;;;;;;12.33;7.13;;;8.10;99.90;;;;;;4988357;28;20217;-80
2022/04/25 00:56:37;;;;;;;11.60;6.23;;;8.10;99.90;;;;;;4988659;28;20228;-80
2022/04/25 00:59:04;;;;;;;12.13;7.57;;;8.10;99.90;;;;;;4988154;28;20277;-80
2022/04/25 01:01:32;;;;;;;16.30;7.57;;;8.10;99.90;;;;;;4986842;28;20269;-80
2022/04/25 01:03:59;;;;;;;14.20;7.00;;;8.20;99.90;;;;;;4988376;28;20263;-81
2022/04/25 01:06:27;;;;;;;16.60;7.90;;;8.10;99.90;;;;;;4986423;28;20666;-81
2022/04/25 01:08:54;;;;;;;15.83;7.10;;;8.10;99.90;;;;;;4988251;28;20206;-80
2022/04/25 01:11:22;;;;;;;13.23;6.93;;;8.10;99.90;;;;;;4987046;28;20244;-80
2022/04/25 01:13:49;;;;;;;13.03;6.97;;;8.10;99.90;;;;;;4988647;28;20265;-80
2022/04/25 01:16:17;;;;;;;11.83;6.83;;;8.10;99.90;;;;;;4987259;28;20205;-81
2022/04/25 01:18:43;;;;;;;14.30;7.20;;;8.10;99.90;;;;;;4989941;28;20195;-80
2022/04/25 01:21:13;;;;;;;16.40;6.83;;;8.10;99.90;;;;;;4988102;28;20404;-80
2022/04/25 01:29:11;;;;;;;11.87;7.10;;;8.00;99.90;;;;;;4969772;29;20198;-81
2022/04/25 01:31:38;;;;;;;15.70;7.80;;;8.00;99.90;;;;;;4978697;28;20230;-81
2022/04/25 01:34:05;;;;;;;13.17;7.50;;;8.00;99.90;;;;;;4988792;28;20237;-80
2022/04/25 01:36:32;;;;;;;13.47;7.13;;;8.00;99.90;;;;;;4985956;28;20206;-81
2022/04/25 01:39:00;;;;;;;12.47;6.90;;;7.90;99.90;;;;;;4986173;28;20645;-81
2022/04/25 01:41:27;;;;;;;12.60;6.63;;;7.90;99.90;;;;;;4985739;28;20225;-80
2022/04/25 01:43:54;;;;;;;14.03;7.77;;;7.90;99.90;;;;;;4987616;28;20236;-81
2022/04/25 01:46:20;;;;;;;15.23;7.37;;;8.00;99.90;;;;;;4989045;28;20585;-81
2022/04/25 01:48:47;;;;;;;17.40;7.80;;;8.00;99.90;;;;;;4986259;28;20229;-81
2022/04/25 01:51:14;;;;;;;13.73;7.10;;;7.90;99.90;;;;;;4986850;28;20253;-80
2022/04/25 01:53:41;;;;;;;14.63;7.37;;;7.90;99.90;;;;;;4988237;28;20265;-81
2022/04/25 01:56:09;;;;;;;15.90;7.70;;;7.90;99.90;;;;;;4987516;28;20238;-80
2022/04/25 01:58:36;;;;;;;14.63;7.60;;;7.90;99.90;;;;;;4986076;28;20249;-80
2022/04/25 02:01:06;;;;;;;15.27;7.50;;;7.90;99.90;;;;;;4988108;28;20233;-81
2022/04/25 02:03:35;;;;;;;13.67;7.77;;;7.90;99.90;;;;;;4988370;28;20209;-81
2022/04/25 02:06:02;;;;;;;15.90;8.07;;;7.80;99.90;;;;;;4986726;28;20229;-82
2022/04/25 02:08:29;;;;;;;14.90;7.80;;;7.80;99.90;;;;;;4986036;28;20198;-81
2022/04/25 02:13:41;;;;;;;16.17;7.33;;;7.90;99.90;;;;;;4988083;28;20221;-81
2022/04/25 02:16:08;;;;;;;17.40;7.47;;;7.80;99.90;;;;;;4987438;28;20233;-80
2022/04/25 02:18:36;;;;;;;12.47;7.77;;;7.80;99.90;;;;;;4988767;28;20235;-81
2022/04/25 02:21:02;;;;;;;14.13;7.97;;;7.90;99.90;;;;;;4987983;28;20213;-81
2022/04/25 02:23:29;;;;;;;17.50;8.40;;;7.90;99.90;;;;;;4987493;28;20595;-81
2022/04/25 02:25:56;;;;;;;17.80;8.03;;;7.90;99.90;;;;;;4987331;28;20218;-80
2022/04/25 02:28:23;;;;;;;13.10;7.87;;;7.90;99.90;;;;;;4987956;28;20210;-80
2022/04/25 02:30:52;;;;;;;14.90;7.87;;;7.90;99.90;;;;;;4987237;28;20213;-80
2022/04/25 02:33:19;;;;;;;14.30;8.00;;;7.80;99.90;;;;;;4988158;28;20284;-80
2022/04/25 02:35:46;;;;;;;14.93;8.77;;;7.80;99.90;;;;;;4987282;28;20665;-81
2022/04/25 02:38:13;;;;;;;17.23;8.57;;;7.90;99.90;;;;;;4987676;28;20217;-80
2022/04/25 02:40:40;;;;;;;16.83;8.00;;;7.80;99.90;;;;;;4987892;28;20266;-80
2022/04/25 02:43:06;;;;;;;15.90;8.90;;;7.80;99.90;;;;;;4987692;28;20281;-80
2022/04/25 02:45:35;;;;;;;14.73;8.70;;;7.70;99.90;;;;;;4987703;28;20222;-81
2022/04/25 02:48:03;;;;;;;14.57;7.77;;;7.80;99.90;;;;;;4985404;28;20225;-80
2022/04/25 02:50:30;;;;;;;16.03;8.80;;;7.70;99.90;;;;;;4986650;28;20610;-81
2022/04/25 02:52:57;;;;;;;14.57;8.53;;;7.70;99.90;;;;;;4987229;28;20237;-80
2022/04/25 02:55:24;;;;;;;16.27;9.53;;;7.70;99.90;;;;;;4987156;28;20229;-80
2022/04/25 02:57:51;;;;;;;16.83;8.97;;;7.70;99.90;;;;;;4991705;28;20670;-80
2022/04/25 03:00:18;;;;;;;14.17;7.83;;;7.70;99.90;;;;;;4987643;28;20202;-80
2022/04/25 03:02:45;;;;;;;17.07;8.87;;;7.60;99.90;;;;;;4986945;28;20214;-80
2022/04/25 03:05:13;;;;;;;16.10;9.47;;;7.60;99.90;;;;;;4987562;28;20291;-81
2022/04/25 03:07:40;;;;;;;17.37;9.00;;;7.70;99.90;;;;;;4987117;28;20229;-81
2022/04/25 03:10:07;;;;;;;16.53;9.37;;;7.60;99.90;;;;;;4987496;28;20652;-80
2022/04/25 03:12:38;;;;;;;15.77;9.27;;;7.60;99.90;;;;;;4987080;28;20201;-81
2022/04/25 03:15:06;;;;;;;17.37;9.87;;;7.60;99.90;;;;;;4986031;28;20754;-83
2022/04/25 03:17:33;;;;;;;16.27;8.53;;;7.60;99.90;;;;;;4987794;28;20252;-80
2022/04/25 03:19:59;;;;;;;14.00;8.63;;;7.60;99.90;;;;;;4988013;28;20209;-81
2022/04/25 03:22:28;;;;;;;16.13;9.10;;;7.70;99.90;;;;;;4987881;28;20273;-80
2022/04/25 03:24:55;;;;;;;14.87;9.27;;;7.60;99.90;;;;;;4985771;28;20624;-80
2022/04/25 03:27:22;;;;;;;17.40;9.27;;;7.60;99.90;;;;;;4985978;28;20261;-81
2022/04/25 03:29:49;;;;;;;18.30;9.73;;;7.60;99.90;;;;;;4988390;28;20264;-81
2022/04/25 03:32:16;;;;;;;15.17;9.70;;;7.70;99.90;;;;;;4986603;28;20212;-81
2022/04/25 03:34:43;;;;;;;15.13;8.60;;;7.50;99.90;;;;;;4987526;28;20229;-80
2022/04/25 03:37:11;;;;;;;17.53;8.87;;;7.50;99.90;;;;;;4988873;28;20222;-80
2022/04/25 03:39:39;;;;;;;15.73;10.00;;;7.50;99.90;;;;;;4988067;28;20209;-81
2022/04/25 03:42:07;;;;;;;18.07;10.80;;;7.50;99.90;;;;;;4988850;28;20206;-81
2022/04/25 03:44:33;;;;;;;17.23;9.90;;;7.50;99.90;;;;;;4981257;28;20234;-82
2022/04/25 03:47:00;;;;;;;18.97;9.83;;;7.50;99.90;;;;;;4990424;28;20277;-81
2022/04/25 03:49:27;;;;;;;16.87;10.30;;;7.40;99.90;;;;;;4988386;28;20285;-81
2022/04/25 03:51:54;;;;;;;16.97;10.20;;;7.40;99.90;;;;;;4989264;28;20233;-81
2022/04/25 03:57:12;;;;;;;17.13;9.17;;;7.40;99.90;;;;;;4986358;28;20249;-82
2022/04/25 03:59:39;;;;;;;18.90;9.87;;;7.40;99.90;;;;;;5006178;28;20247;-82
2022/04/25 04:02:07;;;;;;;18.53;10.17;;;7.30;99.90;;;;;;4996227;28;20681;-81
2022/04/25 04:04:34;;;;;;;18.33;10.17;;;7.40;99.90;;;;;;4986446;28;20289;-81
2022/04/25 04:07:02;;;;;;;16.93;9.80;;;7.50;99.90;;;;;;4987454;28;20206;-82
2022/04/25 04:09:47;;;;;;;19.50;9.97;;;7.40;99.90;;;;;;4986716;28;20210;-82
2022/04/25 04:12:16;;;;;;;16.13;9.97;;;7.50;99.90;;;;;;4988005;28;20202;-83
2022/04/25 04:14:44;;;;;;;18.53;10.03;;;7.40;99.90;;;;;;4985998;28;20264;-81
2022/04/25 04:17:11;;;;;;;17.03;10.37;;;7.50;99.90;;;;;;4986364;28;20661;-82
2022/04/25 04:19:41;;;;;;;14.93;9.20;;;7.50;99.90;;;;;;4986888;28;20279;-81
2022/04/25 04:22:08;;;;;;;16.97;9.27;;;7.50;99.90;;;;;;4988314;28;20282;-81
2022/04/25 04:24:36;;;;;;;17.37;9.40;;;7.50;99.90;;;;;;4986777;28;20268;-81
2022/04/25 04:27:03;;;;;;;13.57;8.83;;;7.40;99.90;;;;;;4988594;28;20274;-81
2022/04/25 04:29:32;;;;;;;12.97;8.33;;;7.50;99.90;;;;;;4988315;28;20202;-80
2022/04/25 04:32:01;;;;;;;15.10;9.47;;;7.50;99.90;;;;;;4985777;28;20273;-80
2022/04/25 04:34:28;;;;;;;16.10;9.43;;;7.50;99.90;;;;;;4989027;28;20233;-81
2022/04/25 04:36:55;;;;;;;17.13;9.90;;;7.40;99.90;;;;;;4989639;28;20277;-81
2022/04/25 04:39:22;;;;;;;17.20;9.73;;;7.40;99.90;;;;;;4988936;28;20260;-81
2022/04/25 04:41:49;;;;;;;18.80;10.50;;;7.40;99.90;;;;;;4990644;28;20246;-80
2022/04/25 04:44:16;;;;;;;22.23;11.67;;;7.40;99.90;;;;;;4988194;28;20322;-80
2022/04/25 04:46:44;;;;;;;20.73;11.33;;;7.30;99.90;;;;;;4985115;28;20665;-79
2022/04/25 04:49:11;;;;;;;15.87;10.90;;;7.40;99.90;;;;;;4986597;28;20245;-80
2022/04/25 04:51:38;;;;;;;18.63;11.40;;;7.40;99.90;;;;;;4989282;28;20236;-80
2022/04/25 04:54:05;;;;;;;19.13;11.33;;;7.40;99.90;;;;;;4985294;28;20250;-80
2022/04/25 04:56:33;;;;;;;22.43;12.13;;;7.40;99.90;;;;;;4989345;28;20229;-80
2022/04/25 04:59:00;;;;;;;21.73;11.47;;;7.30;99.90;;;;;;4984708;28;20237;-80
2022/04/25 05:01:27;;;;;;;20.47;10.90;;;7.30;99.90;;;;;;4989360;28;20210;-80
2022/04/25 05:03:58;;;;;;;21.53;11.47;;;7.30;99.90;;;;;;4971919;28;20206;-81
2022/04/25 05:06:25;;;;;;;19.73;11.37;;;7.40;99.90;;;;;;4982490;28;20217;-82
2022/04/25 05:08:52;;;;;;;19.00;11.67;;;7.40;99.90;;;;;;4981542;28;20211;-80
2022/04/25 05:11:19;;;;;;;20.70;11.10;;;7.30;99.90;;;;;;4995552;28;20292;-80
2022/04/25 05:13:46;;;;;;;23.70;12.37;;;7.30;99.90;;;;;;4985269;28;20212;-80
2022/04/25 05:16:14;;;;;;;22.20;11.70;;;7.30;99.90;;;;;;4988881;28;20205;-80
2022/04/25 05:18:40;;;;;;;18.00;10.60;;;7.30;99.90;;;;;;4985137;28;20224;-80
2022/04/25 05:21:09;;;;;;;20.97;11.40;;;7.40;99.90;;;;;;4989758;28;20238;-81
2022/04/25 05:23:35;;;;;;;22.10;12.50;;;7.30;99.90;;;;;;4988771;28;20252;-80
2022/04/25 05:26:02;;;;;;;21.03;12.43;;;7.30;99.90;;;;;;4978975;28;20265;-81
2022/04/25 05:28:31;;;;;;;20.03;12.47;;;7.30;99.90;;;;;;4988097;28;20688;-81
2022/04/25 05:30:58;;;;;;;20.03;11.57;;;7.30;99.90;;;;;;4979198;28;20214;-80
2022/04/25 05:33:25;;;;;;;20.60;11.70;;;7.30;99.90;;;;;;4983148;28;20225;-80
2022/04/25 05:35:52;;;;;;;21.60;11.57;;;7.20;99.90;;;;;;4981872;28;20282;-80
2022/04/25 05:38:20;;;;;;;20.60;10.93;;;7.30;99.90;;;;;;4987115;28;20221;-79
2022/04/25 05:40:51;;;;;;;19.33;11.03;;;7.20;99.90;;;;;;4966970;28;20214;-80
2022/04/25 05:43:18;;;;;;;19.33;10.50;;;7.30;99.90;;;;;;4985571;28;20214;-80
2022/04/25 05:45:47;;;;;;;23.00;9.80;;;7.30;99.90;;;;;;4978510;28;20222;-80
2022/04/25 05:53:45;;;;;;;16.40;9.57;;;7.50;99.90;;;;;;4978842;28;20200;-81
2022/04/25 05:56:12;;;;;;;17.00;10.17;;;7.30;99.90;;;;;;4978342;28;20213;-80
2022/04/25 05:58:39;;;;;;;17.60;10.20;;;7.40;99.90;;;;;;4975852;28;20236;-79
2022/04/25 06:01:06;;;;;;;14.00;9.20;;;7.50;99.90;;;;;;4979880;28;20265;-79
2022/04/25 06:03:33;;;;;;;16.23;9.27;;;7.30;99.90;;;;;;4973905;28;20229;-79
2022/04/25 06:05:59;;;;;;;13.70;8.67;;;7.40;99.90;;;;;;4976363;28;20226;-79
2022/04/25 06:08:26;;;;;;;16.07;8.97;;;7.40;99.90;;;;;;4982178;28;20292;-79
2022/04/25 06:10:55;;;;;;;14.60;8.90;;;7.50;99.90;;;;;;4976661;28;20240;-79
2022/04/25 06:13:21;;;;;;;16.70;9.47;;;7.30;99.90;;;;;;4981733;28;20209;-79
2022/04/25 06:15:48;;;;;;;14.10;8.23;;;7.40;99.90;;;;;;4976221;28;20261;-80
2022/04/25 06:18:15;;;;;;;14.80;8.83;;;7.30;99.90;;;;;;4980881;28;20225;-77
2022/04/25 06:20:42;;;;;;;14.93;8.40;;;7.40;99.90;;;;;;4982578;28;20270;-79
2022/04/25 06:23:09;;;;;;;15.40;8.60;;;7.40;99.90;;;;;;4984539;28;20277;-82
2022/04/25 06:25:37;;;;;;;12.70;8.27;;;7.40;99.90;;;;;;4986092;28;20257;-81
2022/04/25 06:28:06;;;;;;;14.70;8.60;;;7.30;99.90;;;;;;4988663;28;20209;-81
2022/04/25 06:30:33;;;;;;;15.63;8.83;;;7.40;99.90;;;;;;4987416;28;20293;-80
2022/04/25 06:32:59;;;;;;;13.10;8.37;;;7.40;99.90;;;;;;4989842;28;20237;-81
2022/04/25 06:35:27;;;;;;;14.83;8.40;;;7.40;99.90;;;;;;4984667;28;20574;-79
2022/04/25 06:37:54;;;;;;;14.00;7.93;;;7.30;99.90;;;;;;4992219;28;20305;-82
2022/04/25 06:40:21;;;;;;;15.43;8.97;;;7.30;99.90;;;;;;4991506;28;20269;-81
2022/04/25 06:42:49;;;;;;;14.70;9.03;;;7.30;99.90;;;;;;4983908;28;20579;-82
2022/04/25 06:45:17;;;;;;;14.73;8.23;;;7.30;99.90;;;;;;4990325;28;20627;-83
2022/04/25 06:47:44;;;;;;;13.63;8.23;;;7.20;99.90;;;;;;4992209;28;20296;-80
2022/04/25 06:50:12;;;;;;;15.83;8.03;;;7.10;99.90;;;;;;4989401;28;20206;-80
2022/04/25 06:52:39;;;;;;;16.40;9.20;;;7.30;99.90;;;;;;4997578;28;20200;-81
2022/04/25 06:55:07;;;;;;;16.80;9.37;;;7.20;99.90;;;;;;4991271;28;20298;-80
2022/04/25 06:57:34;;;;;;;14.83;8.97;;;7.20;99.90;;;;;;4989144;28;20209;-83
2022/04/25 07:00:01;;;;;;;14.43;8.67;;;7.30;99.90;;;;;;4987511;28;20218;-81
2022/04/25 07:02:29;;;;;;;14.37;8.47;;;7.20;99.90;;;;;;4984320;28;20236;-81
2022/04/25 07:04:56;;;;;;;16.40;9.97;;;7.30;99.90;;;;;;4983491;28;20654;-81
2022/04/25 07:07:25;;;;;;;15.83;8.90;;;7.30;99.90;;;;;;4981750;28;20206;-82
2022/04/25 07:09:52;;;;;;;15.80;9.23;;;7.40;99.90;;;;;;4989856;28;20213;-81
2022/04/25 07:12:19;;;;;;;16.67;8.90;;;7.30;99.90;;;;;;4981882;28;20182;-81
2022/04/25 07:14:45;;;;;;;14.30;9.03;;;7.40;99.90;;;;;;4980533;28;20252;-81
2022/04/25 07:17:12;;;;;;;14.73;8.57;;;7.40;99.90;;;;;;4978654;28;20221;-84
2022/04/25 07:19:40;;;;;;;16.57;9.67;;;7.60;99.90;;;;;;4987807;28;20264;-81
2022/04/25 07:30:22;;;;;;;15.50;9.23;;;7.40;99.90;;;;;;4981308;28;20283;-84
2022/04/25 07:32:49;;;;;;;17.37;9.63;;;7.50;99.90;;;;;;4979441;28;20219;-82
2022/04/25 07:35:18;;;;;;;15.43;8.80;;;7.50;99.90;;;;;;4988010;28;20234;-82
2022/04/25 07:37:45;;;;;;;16.50;10.00;;;7.40;99.90;;;;;;4982572;28;20216;-81
2022/04/25 07:40:12;;;;;;;16.20;10.80;;;7.50;99.90;;;;;;4983811;28;20221;-80
2022/04/25 07:42:39;;;;;;;15.87;9.60;;;7.60;99.90;;;;;;4991640;28;20272;-82
2022/04/25 07:45:08;;;;;;;18.67;11.57;;;7.60;99.90;;;;;;4987782;28;20226;-80
2022/04/25 07:47:35;;;;;;;19.57;11.57;;;7.70;99.90;;;;;;4985113;28;20229;-82
2022/04/25 07:50:03;;;;;;;17.13;10.43;;;7.80;99.90;;;;;;4982844;28;20241;-81
2022/04/25 07:52:31;;;;;;;19.77;11.17;;;7.90;99.90;;;;;;4987648;28;20264;-81
2022/04/25 07:54:58;;;;;;;15.93;10.33;;;8.00;99.90;;;;;;4985231;28;20588;-81
2022/04/25 07:57:26;;;;;;;17.63;10.60;;;7.90;99.90;;;;;;4987828;28;20296;-80
2022/04/25 07:59:53;;;;;;;15.83;9.80;;;8.20;99.90;;;;;;4987457;28;20277;-80
2022/04/25 08:02:20;;;;;;;16.90;9.83;;;8.10;99.90;;;;;;4983146;28;20240;-82
2022/04/25 08:04:48;;;;;;;14.73;9.43;;;8.10;99.90;;;;;;4980206;28;20253;-82
2022/04/25 08:07:15;;;;;;;14.60;9.13;;;8.10;99.90;;;;;;4986450;28;20676;-80
2022/04/25 08:09:43;;;;;;;16.40;9.67;;;8.10;99.90;;;;;;4987059;28;20288;-80
2022/04/25 08:17:59;;;;;;;24.43;9.50;;;8.10;99.90;;;;;;4987163;28;20212;-80
2022/04/25 08:20:28;;;;;;;16.30;10.40;;;8.00;99.90;;;;;;4992025;28;20230;-79
2022/04/25 08:22:55;;;;;;;16.03;10.00;;;8.00;99.90;;;;;;4995281;28;20214;-80
2022/04/25 08:25:24;;;;;;;15.30;9.10;;;8.00;99.90;;;;;;4982830;28;20244;-79
2022/04/25 08:27:50;;;;;;;14.53;8.67;;;7.90;99.90;;;;;;4984498;28;20265;-80
2022/04/25 08:30:19;;;;;;;17.03;9.87;;;7.80;99.90;;;;;;4989002;28;20228;-83
2022/04/25 08:32:47;;;;;;;18.07;10.87;;;7.90;99.90;;;;;;4997151;28;20224;-81
2022/04/25 08:35:14;;;;;;;18.43;11.23;;;7.90;99.90;;;;;;4991608;28;20256;-82
2022/04/25 08:37:41;;;;;;;15.80;9.70;;;7.90;99.90;;;;;;4989514;28;20305;-82
2022/04/25 08:40:09;;;;;;;15.17;9.73;;;7.90;99.90;;;;;;4989392;28;20221;-80
2022/04/25 08:42:38;;;;;;;17.30;10.60;;;7.90;99.90;;;;;;4998465;28;20218;-81
2022/04/25 08:45:07;;;;;;;15.83;10.57;;;7.90;99.90;;;;;;4988700;28;20293;-82
2022/04/25 08:47:47;;;;;;;19.33;10.57;;;7.90;99.90;;;;;;4995654;28;20228;-81
2022/04/25 08:50:16;;;;;;;17.80;10.13;;;7.90;99.90;;;;;;4988939;28;20201;-81
2022/04/25 08:52:44;;;;;;;16.57;10.67;;;8.00;99.90;;;;;;4996857;28;20627;-81
2022/04/25 08:55:12;;;;;;;19.43;11.77;;;7.90;99.90;;;;;;4989152;28;20225;-83
2022/04/25 08:57:43;;;;;;;17.97;10.90;;;7.90;99.90;;;;;;4988439;28;20226;-82
2022/04/25 09:00:11;;;;;;;19.40;11.67;;;8.10;99.90;;;;;;4990060;28;20289;-81
2022/04/25 09:02:39;;;;;;;20.67;12.70;;;8.20;99.90;;;;;;4993318;28;20213;-82
2022/04/25 09:05:06;;;;;;;21.07;13.37;;;8.10;99.90;;;;;;4985841;28;20234;-81
2022/04/25 09:07:34;;;;;;;20.73;12.60;;;8.20;99.90;;;;;;4984608;28;20202;-80
2022/04/25 09:10:01;;;;;;;22.10;13.10;;;8.30;99.90;;;;;;4990719;28;20241;-79
2022/04/25 09:12:29;;;;;;;26.77;14.73;;;8.20;99.90;;;;;;4995719;28;20201;-81
2022/04/25 09:14:58;;;;;;;22.77;15.20;;;8.30;99.90;;;;;;4991902;28;20269;-80
2022/04/25 09:17:25;;;;;;;25.20;14.60;;;8.20;99.90;;;;;;4994447;28;20212;-79
2022/04/25 09:19:52;;;;;;;22.00;14.50;;;8.20;99.90;;;;;;4989553;28;20225;-80
2022/04/25 09:22:32;;;;;;;24.80;15.67;;;8.20;99.90;;;;;;4983083;28;20226;-80
2022/04/25 09:25:05;;;;;;;25.37;15.77;;;8.10;99.90;;;;;;4986355;28;20592;-80
2022/04/25 09:27:33;;;;;;;21.80;15.70;;;8.30;99.90;;;;;;4984145;28;20204;-80
2022/04/25 09:30:16;;;;;;;22.17;13.27;;;8.60;99.90;;;;;;4978257;28;20209;-80
2022/04/25 09:32:43;;;;;;;20.57;12.77;;;8.40;99.90;;;;;;4984454;28;20209;-80
2022/04/25 09:35:32;;;;;;;22.87;12.53;;;8.50;99.90;;;;;;4986871;28;20257;-80
2022/04/25 09:38:00;;;;;;;19.83;11.67;;;8.70;99.90;;;;;;4979783;28;20209;-79
2022/04/25 09:40:29;;;;;;;20.37;12.43;;;8.60;99.90;;;;;;4974976;28;20228;-82
2022/04/25 09:43:11;;;;;;;19.93;11.80;;;8.60;99.90;;;;;;4980038;28;20218;-79
2022/04/25 09:45:42;;;;;;;17.37;10.80;;;8.60;99.90;;;;;;4975572;28;20276;-80
2022/04/25 09:48:10;;;;;;;22.07;12.37;;;8.50;99.90;;;;;;4972205;28;20241;-80
2022/04/25 09:50:38;;;;;;;21.80;12.67;;;8.50;99.90;;;;;;4969750;28;20227;-80
2022/04/25 09:53:06;;;;;;;22.30;13.70;;;8.50;99.90;;;;;;4985973;28;20284;-80
2022/04/25 09:55:35;;;;;;;21.73;13.63;;;8.60;99.90;;;;;;4987964;28;20709;-80
2022/04/25 09:58:18;;;;;;;22.47;14.87;;;8.60;99.90;;;;;;4986815;28;20228;-80
2022/04/25 10:00:49;;;;;;;18.20;12.13;;;8.70;99.90;;;;;;4985120;28;20305;-80
2022/04/25 10:03:17;;;;;;;15.07;9.80;;;8.80;99.90;;;;;;4984149;28;20241;-80
2022/04/25 10:05:46;;;;;;;18.40;11.13;;;8.80;99.90;;;;;;4988324;28;20225;-80
2022/04/25 10:08:15;;;;;;;18.20;10.03;;;8.80;99.90;;;;;;4978925;28;20222;-81
2022/04/25 10:10:46;;;;;;;16.93;11.10;;;8.70;99.90;;;;;;4999093;28;20257;-81
2022/04/25 10:13:13;;;;;;;18.43;10.47;;;8.60;99.90;;;;;;4999788;28;20205;-82
2022/04/25 10:15:42;;;;;;;17.60;10.90;;;8.70;99.90;;;;;;4997250;28;20221;-81
2022/04/25 10:18:11;;;;;;;15.73;9.73;;;8.60;99.90;;;;;;4998307;28;20216;-82
2022/04/25 10:20:40;;;;;;;17.03;9.13;;;8.60;99.90;;;;;;5002013;28;20308;-81
2022/04/25 10:23:09;;;;;;;17.37;10.00;;;8.60;99.90;;;;;;5001637;28;20204;-81
2022/04/25 10:25:37;;;;;;;16.37;10.10;;;8.70;99.90;;;;;;5002009;28;20236;-81
2022/04/25 10:28:08;;;;;;;18.10;10.73;;;8.60;99.90;;;;;;4989668;28;20220;-83
2022/04/25 10:30:36;;;;;;;18.43;11.03;;;8.60;99.90;;;;;;4994651;28;20236;-81
2022/04/25 10:33:18;;;;;;;17.80;10.47;;;8.50;99.90;;;;;;4993610;28;20241;-80
2022/04/25 10:35:46;;;;;;;17.17;10.70;;;8.50;99.90;;;;;;4980080;28;20289;-82
2022/04/25 10:44:12;;;;;;;14.50;9.27;;;8.80;99.90;;;;;;4989701;28;20272;-81
2022/04/25 10:47:13;;;;;;;14.43;9.37;;;8.70;99.90;;;;;;4965765;28;20218;-81
2022/04/25 10:49:43;;;;;;;20.07;10.87;;;8.90;99.90;;;;;;4982634;28;20206;-80
2022/04/25 10:52:44;;;;;;;13.93;9.23;;;8.80;99.90;;;;;;4982583;28;20201;-80
2022/04/25 10:55:19;;;;;;;14.33;9.67;;;8.90;99.90;;;;;;4976579;28;20638;-83
2022/04/25 10:58:15;;;;;;;16.23;10.13;;;8.80;99.90;;;;;;4982025;28;20215;-80
2022/04/25 11:00:54;;;;;;;16.17;9.67;;;8.90;99.90;;;;;;4986401;28;20654;-81
2022/04/25 11:03:24;;;;;;;15.50;9.50;;;8.90;99.90;;;;;;4979491;28;20289;-81
2022/04/25 11:05:53;;;;;;;18.17;9.57;;;9.00;99.90;;;;;;4981672;28;20232;-82
2022/04/25 11:08:38;;;;;;;15.13;9.50;;;9.00;99.90;;;;;;4982073;28;20206;-81
2022/04/25 11:11:09;;;;;;;18.57;10.57;;;9.10;99.90;;;;;;4980998;28;20292;-81
2022/04/25 11:14:04;;;;;;;19.70;10.77;;;9.00;99.90;;;;;;4987193;28;20209;-82
2022/04/25 11:16:31;;;;;;;15.60;10.23;;;8.90;99.90;;;;;;4980691;28;20277;-81
2022/04/25 11:19:08;;;;;;;14.43;9.13;;;8.90;99.90;;;;;;4992261;28;20208;-83
2022/04/25 11:21:42;;;;;;;14.67;9.67;;;9.00;99.90;;;;;;4989495;28;20260;-81
2022/04/25 11:24:26;;;;;;;16.03;9.23;;;9.10;99.90;;;;;;4978493;28;20229;-81
2022/04/25 11:27:01;;;;;;;15.80;9.47;;;9.10;99.90;;;;;;4967570;28;20229;-80
2022/04/25 11:29:28;;;;;;;19.17;11.50;;;9.00;99.90;;;;;;4980782;28;20205;-80
2022/04/25 11:32:27;;;;;;;16.97;9.87;;;9.10;99.90;;;;;;4980831;28;20210;-81
2022/04/25 11:35:00;;;;;;;17.63;10.53;;;9.20;99.90;;;;;;4967106;28;20226;-81
2022/04/25 11:37:30;;;;;;;16.40;9.10;;;9.20;99.90;;;;;;4982687;28;20225;-81
2022/04/25 11:39:59;;;;;;;13.40;9.30;;;9.10;99.90;;;;;;4982560;28;20284;-82
2022/04/25 11:42:31;;;;;;;16.20;9.87;;;9.20;99.90;;;;;;4980601;28;20205;-81
2022/04/25 11:44:59;;;;;;;14.97;9.60;;;9.30;99.90;;;;;;4991131;28;20257;-81
2022/04/25 11:47:26;;;;;;;13.60;9.30;;;9.30;99.90;;;;;;4978711;28;20284;-82
2022/04/25 11:49:57;;;;;;;16.57;9.47;;;9.40;99.90;;;;;;4989235;28;20201;-81
2022/04/25 11:52:26;;;;;;;11.90;9.10;;;9.40;99.90;;;;;;4986561;28;20682;-81
2022/04/25 11:54:55;;;;;;;15.93;9.47;;;9.40;99.90;;;;;;4986446;28;20222;-81
2022/04/25 11:57:22;;;;;;;15.10;9.70;;;9.40;99.90;;;;;;4991821;28;20285;-82
2022/04/25 11:59:49;;;;;;;15.97;9.27;;;9.30;99.90;;;;;;4990378;28;20297;-81
2022/04/25 12:02:17;;;;;;;19.47;9.27;;;9.30;99.90;;;;;;4982381;28;20206;-81
2022/04/25 12:04:46;;;;;;;15.40;9.30;;;9.40;99.90;;;;;;4976832;28;20702;-79
2022/04/25 12:07:13;;;;;;;18.13;10.27;;;9.50;99.90;;;;;;4991592;28;20217;-82
2022/04/25 12:15:36;;;;;;;16.70;9.43;;;9.60;97.70;;;;;;4986653;28;20268;-80
2022/04/25 12:18:15;;;;;;;14.97;9.23;;;9.80;99.90;;;;;;4983968;28;20278;-81
2022/04/25 12:20:43;;;;;;;16.83;9.07;;;9.80;99.90;;;;;;4963948;28;20257;-80
2022/04/25 12:23:19;;;;;;;14.13;9.53;;;9.60;99.90;;;;;;4980931;28;20217;-79
2022/04/25 12:25:46;;;;;;;12.63;8.97;;;9.60;99.90;;;;;;4980061;28;20255;-80
2022/04/25 12:28:19;;;;;;;14.10;8.33;;;9.70;91.70;;;;;;4980533;28;20566;-79
2022/04/25 12:30:52;;;;;;;11.77;8.03;;;9.70;1.00;;;;;;4988767;28;20190;-80
2022/04/25 12:33:20;;;;;;;14.23;9.27;;;9.60;99.90;;;;;;4982955;28;20273;-80
2022/04/25 12:35:48;;;;;;;16.00;10.27;;;9.70;99.90;;;;;;4989143;28;20256;-81
2022/04/25 12:38:41;;;;;;;13.77;8.90;;;9.80;99.90;;;;;;4978372;28;20245;-80
2022/04/25 12:41:11;;;;;;;13.37;8.90;;;9.80;99.90;;;;;;5000420;28;20231;-83
2022/04/25 12:43:42;;;;;;;14.33;9.17;;;9.80;99.90;;;;;;4976293;28;20225;-80
2022/04/25 12:46:09;;;;;;;15.03;9.40;;;10.00;99.90;;;;;;4978178;28;20221;-82
2022/04/25 12:49:05;;;;;;;14.47;9.90;;;9.70;99.90;;;;;;4983225;28;20198;-82
2022/04/25 12:51:37;;;;;;;16.00;9.77;;;9.70;99.90;;;;;;4978445;28;20202;-79
2022/04/25 12:54:06;;;;;;;15.37;9.53;;;9.90;99.90;;;;;;4988398;28;20273;-79
2022/04/25 12:56:35;;;;;;;15.80;10.10;;;10.00;99.90;;;;;;4980669;28;20265;-80
2022/04/25 12:59:04;;;;;;;16.50;9.63;;;9.80;99.90;;;;;;4989168;28;20292;-80
2022/04/25 13:01:36;;;;;;;15.17;9.23;;;9.80;99.90;;;;;;4985625;28;20236;-79
2022/04/25 13:04:12;;;;;;;14.90;9.30;;;9.90;99.90;;;;;;4988552;28;20256;-79
2022/04/25 13:06:40;;;;;;;14.50;9.93;;;9.90;99.90;;;;;;4992752;28;20202;-78
2022/04/25 13:09:07;;;;;;;13.07;9.00;;;9.90;99.90;;;;;;4978559;28;20292;-79
2022/04/25 13:11:34;;;;;;;14.40;9.53;;;9.80;99.90;;;;;;4981370;28;20632;-82
2022/04/25 13:14:01;;;;;;;13.47;9.10;;;9.90;99.90;;;;;;4975735;28;20405;-80
2022/04/25 13:16:30;;;;;;;15.57;9.83;;;10.00;99.90;;;;;;4975099;28;20212;-82
2022/04/25 13:18:58;;;;;;;14.20;9.53;;;10.00;99.90;;;;;;4978473;28;20600;-79
2022/04/25 13:21:26;;;;;;;15.17;10.23;;;10.00;99.90;;;;;;4993005;28;20265;-80
2022/04/25 13:23:52;;;;;;;14.37;9.60;;;9.90;99.90;;;;;;4991946;28;20202;-83
2022/04/25 13:26:20;;;;;;;16.10;9.97;;;9.80;99.90;;;;;;4990339;28;20221;-80
2022/04/25 13:28:47;;;;;;;14.80;10.60;;;9.90;99.90;;;;;;4987493;28;20609;-80
2022/04/25 13:31:15;;;;;;;14.27;9.77;;;9.90;99.90;;;;;;4986751;28;20236;-80
2022/04/25 13:33:44;;;;;;;14.40;10.20;;;9.80;99.90;;;;;;4987195;28;20653;-80